Time;durP1;ratioP1;P1;durP2;ratioP2;P2;SDS_P1;SDS_P2;PMS_P1;PMS_P2;Temp;Humidity;BMP_temperature;BMP_pressure;BME280_temperature;BME280_humidity;BME280_pressure;Samples;Min_cycle;Max_cycle;Signal;HPM_P1;HPM_P2
2022/01/24 00:02:09;;;;;;;38.90;16.90;;;;;;;-2.55;82.23;100735.48;4085414;85;21192;-88
2022/01/24 00:08:10;;;;;;;39.90;18.87;;;;;;;-2.62;81.92;100746.38;4113216;84;21646;-86
2022/01/24 00:32:40;;;;;;;49.40;20.73;;;;;;;-2.85;81.89;100747.11;4120193;84;21156;-88
2022/01/24 00:39:06;;;;;;;47.77;20.27;;;;;;;-2.95;81.79;100741.06;4117064;84;21617;-88
2022/01/24 00:45:17;;;;;;;42.17;18.23;;;;;;;-3.07;81.50;100734.98;4107471;85;22211;-87
2022/01/24 00:57:54;;;;;;;;;;;;;;;-3.65;81.55;100733.97;4116180;84;22264;-87
2022/01/24 01:04:03;;;;;;;86.47;34.30;;;;;;;-3.74;81.72;100743.97;4100211;85;20517;-87
2022/01/24 01:23:08;;;;;;;67.90;25.73;;;;;;;-4.34;81.25;100742.78;4112385;85;21067;-86
2022/01/24 01:29:28;;;;;;;63.47;24.40;;;;;;;-4.61;81.57;100743.81;4111287;84;21049;-87
2022/01/24 01:35:47;;;;;;;62.37;25.47;;;;;;;-4.79;81.47;100734.56;4106110;84;21122;-86
2022/01/24 01:54:45;;;;;;;65.50;29.15;;;;;;;-5.30;81.30;100739.26;3984514;85;21039;-86
2022/01/24 02:01:07;;;;;;;77.73;28.43;;;;;;;-5.65;81.23;100736.19;4099013;84;21124;-86
2022/01/24 02:07:28;;;;;;;50.77;21.97;;;;;;;-5.89;81.50;100738.03;4115060;84;21138;-85
2022/01/24 02:13:31;;;;;;;68.70;27.27;;;;;;;-6.05;81.60;100737.82;4105379;84;21117;-87
2022/01/24 02:26:02;;;;;;;61.40;25.27;;;;;;;-6.45;81.41;100752.67;3965059;88;21171;-86
2022/01/24 02:32:12;;;;;;;64.87;26.17;;;;;;;-6.63;81.35;100755.63;3945750;87;23216;-86
2022/01/24 02:51:50;;;;;;;64.97;26.53;;;;;;;-7.08;81.36;100763.52;4032215;86;21569;-85
2022/01/24 02:57:51;;;;;;;59.63;25.30;;;;;;;-7.32;81.56;100767.52;4011504;86;21145;-85
2022/01/24 03:10:51;;;;;;;54.33;23.00;;;;;;;-7.73;81.19;100783.13;4011573;86;21247;-85
2022/01/24 03:17:14;;;;;;;57.53;23.43;;;;;;;-7.91;81.36;100781.20;4104876;85;21104;-85
2022/01/24 03:23:23;;;;;;;67.53;26.07;;;;;;;-7.97;81.37;100782.02;4123255;84;21094;-85
2022/01/24 03:29:24;;;;;;;61.00;24.10;;;;;;;-8.08;81.25;100785.87;4106262;84;21072;-84
2022/01/24 03:35:26;;;;;;;64.30;24.87;;;;;;;-8.29;80.99;100789.66;4111093;84;21522;-85
2022/01/24 03:41:27;;;;;;;67.30;24.67;;;;;;;-8.27;81.62;100789.73;4114345;85;21108;-85
2022/01/24 03:47:44;;;;;;;64.10;24.53;;;;;;;-8.20;81.51;100791.02;4120088;84;21076;-84
2022/01/24 04:00:08;;;;;;;67.83;27.73;;;;;;;-8.56;81.18;100803.52;4112727;84;21084;-84
2022/01/24 04:06:11;;;;;;;71.53;27.23;;;;;;;-8.73;81.09;100821.41;4111551;84;21034;-84
2022/01/24 04:12:14;;;;;;;59.43;23.47;;;;;;;-8.77;81.27;100817.55;4112661;84;21088;-84
2022/01/24 04:25:29;;;;;;;58.73;25.30;;;;;;;-8.91;81.31;100823.89;4101533;84;21112;-83
2022/01/24 04:31:30;;;;;;;72.27;29.07;;;;;;;-8.92;82.15;100826.22;4118071;84;21629;-83
2022/01/24 04:37:36;;;;;;;58.53;24.17;;;;;;;-9.04;81.25;100829.19;4113649;84;21633;-84
2022/01/24 04:56:16;;;;;;;68.03;26.33;;;;;;;-9.43;81.20;100834.45;4099259;85;21147;-83
2022/01/24 05:08:46;;;;;;;76.40;30.43;;;;;;;-9.40;81.55;100841.51;4002724;86;21696;-84
2022/01/24 05:34:20;;;;;;;84.03;29.37;;;;;;;-10.02;80.82;100845.69;4032620;86;21430;-83
2022/01/24 05:40:21;;;;;;;104.50;34.73;;;;;;;-10.24;80.84;100851.34;4041823;86;21073;-83
2022/01/24 05:46:32;;;;;;;93.63;33.33;;;;;;;-10.13;81.34;100863.50;4027388;86;21121;-83
2022/01/24 05:52:41;;;;;;;110.37;35.93;;;;;;;-10.00;82.55;100867.52;4033247;86;21051;-83
2022/01/24 05:59:14;;;;;;;113.53;34.70;;;;;;;-9.75;82.59;100868.34;4111865;84;21128;-83
2022/01/24 06:11:58;;;;;;;109.20;32.27;;;;;;;-10.36;80.72;100884.16;4109629;85;21088;-83
2022/01/24 06:18:13;;;;;;;100.13;31.40;;;;;;;-10.69;80.64;100889.72;4112040;84;21048;-83
2022/01/24 06:24:26;;;;;;;122.25;36.73;;;;;;;-10.70;81.22;100897.36;4111012;84;21091;-83
2022/01/24 06:30:40;;;;;;;119.00;40.40;;;;;;;-10.76;81.88;100903.92;4114455;84;21162;-83
2022/01/24 06:36:50;;;;;;;120.90;38.47;;;;;;;-10.72;81.48;100908.63;3968507;87;21167;-83
2022/01/24 06:43:08;;;;;;;120.77;38.03;;;;;;;-10.70;81.22;100913.23;4098954;85;21135;-82
2022/01/24 06:49:10;;;;;;;134.73;40.00;;;;;;;-10.76;80.97;100914.00;4116226;84;21186;-83
2022/01/24 06:55:11;;;;;;;124.03;41.60;;;;;;;-10.80;81.89;100912.73;4107355;84;21544;-82
2022/01/24 07:01:16;;;;;;;133.47;44.63;;;;;;;-10.79;81.11;100918.33;4112890;84;21636;-82
2022/01/24 07:07:30;;;;;;;;;;;;;;;-10.67;81.58;100922.61;4112261;85;21076;-83
2022/01/24 07:13:31;;;;;;;114.03;36.87;;;;;;;-10.66;81.30;100914.48;4112518;85;20114;-83
2022/01/24 07:19:45;;;;;;;104.63;38.87;;;;;;;-10.51;82.23;100917.05;4110750;84;21135;-83
2022/01/24 07:25:55;;;;;;;120.97;41.93;;;;;;;-10.52;81.40;100930.77;4107094;84;21107;-82
2022/01/24 07:32:04;;;;;;;114.43;38.53;;;;;;;-10.18;83.10;100915.44;4114112;85;21107;-82
2022/01/24 07:38:07;;;;;;;120.00;44.10;;;;;;;-9.83;82.82;100919.16;4097336;85;21532;-82
2022/01/24 07:44:08;;;;;;;118.17;45.47;;;;;;;-9.55;82.83;100929.66;4108189;84;21061;-83
2022/01/24 07:50:12;;;;;;;133.43;50.30;;;;;;;-9.33;83.10;100933.81;4105427;84;21057;-83
2022/01/24 07:56:13;;;;;;;127.03;49.27;;;;;;;-8.75;83.78;100929.63;4110752;84;21092;-84
2022/01/24 08:02:15;;;;;;;137.37;61.50;;;;;;;-8.13;83.72;100933.45;4120038;84;21221;-84
2022/01/24 08:08:36;;;;;;;176.90;77.10;;;;;;;-7.45;83.74;100932.02;4122635;84;21053;-85
2022/01/24 08:14:41;;;;;;;176.73;74.07;;;;;;;-6.69;84.05;100927.48;4109314;84;21180;-84
2022/01/24 08:20:42;;;;;;;149.70;60.47;;;;;;;-6.03;83.56;100922.39;4110754;84;21596;-86
2022/01/24 08:26:43;;;;;;;166.70;69.73;;;;;;;-5.37;83.61;100932.05;4099587;84;21051;-85
2022/01/24 08:32:46;;;;;;;149.07;63.83;;;;;;;-4.59;83.40;100929.31;4114236;84;21080;-86
2022/01/24 08:38:50;;;;;;;153.20;65.60;;;;;;;-4.85;82.35;100921.17;4121507;84;21054;-85
2022/01/24 08:51:52;;;;;;;142.03;57.70;;;;;;;-3.06;81.99;100937.53;4120374;84;21109;-86
2022/01/24 08:58:18;;;;;;;128.93;54.93;;;;;;;-2.42;81.20;100945.64;4113678;84;21049;-88
2022/01/24 09:04:26;;;;;;;137.30;60.07;;;;;;;-2.11;80.62;100949.09;4114440;84;21097;-87
2022/01/24 09:10:28;;;;;;;128.27;54.97;;;;;;;-1.22;81.17;100948.72;4119977;84;21539;-86
2022/01/24 09:16:30;;;;;;;141.20;58.78;;;;;;;-0.44;80.92;100944.17;4114091;84;21116;-85
2022/01/24 09:22:37;;;;;;;155.10;67.47;;;;;;;0.08;80.36;100945.11;4110396;85;21094;-86
2022/01/24 09:28:47;;;;;;;133.82;61.45;;;;;;;0.65;79.99;100931.69;4116864;84;21048;-85
2022/01/24 09:34:49;;;;;;;122.53;56.30;;;;;;;1.17;79.84;100929.71;4108774;85;21078;-86
2022/01/24 09:41:04;;;;;;;116.00;51.88;;;;;;;1.63;78.64;100925.45;4111715;84;21044;-86
2022/01/24 09:53:48;;;;;;;114.77;51.02;;;;;;;1.87;77.89;100933.00;4021829;86;21819;-85
2022/01/24 10:06:25;;;;;;;112.20;53.40;;;;;;;2.64;76.96;100916.63;4011401;86;21623;-86
2022/01/24 10:19:36;;;;;;;116.53;51.85;;;;;;;1.93;75.40;100909.77;4103900;85;21572;-86
2022/01/24 10:32:52;;;;;;;99.30;50.17;;;;;;;1.42;74.57;100891.98;4110780;84;21067;-87
2022/01/24 10:39:55;;;;;;;93.00;44.95;;;;;;;1.66;74.18;100882.80;4114668;84;21039;-87
2022/01/24 10:46:02;;;;;;;86.35;40.38;;;;;;;2.14;74.00;100880.30;4013275;85;21087;-87
2022/01/24 10:52:35;;;;;;;86.25;41.80;;;;;;;1.80;73.41;100880.64;4112258;84;21107;-88
2022/01/24 10:58:36;;;;;;;76.12;35.85;;;;;;;2.00;73.33;100871.15;4109050;84;21060;-87
2022/01/24 11:04:40;;;;;;;73.17;35.88;;;;;;;1.81;72.34;100861.17;4112071;85;21095;-87
2022/01/24 11:10:52;;;;;;;73.10;36.17;;;;;;;1.37;70.51;100852.31;4119490;84;21060;-87
2022/01/24 11:17:00;;;;;;;75.57;37.90;;;;;;;1.55;69.91;100845.00;4114628;83;21091;-86
2022/01/24 11:23:05;;;;;;;69.40;32.93;;;;;;;1.46;70.74;100828.27;4105198;84;21106;-87
2022/01/24 11:29:06;;;;;;;64.17;32.58;;;;;;;0.87;69.45;100825.81;4116243;84;21087;-87
2022/01/24 11:41:37;;;;;;;51.53;25.15;;;;;;;1.05;70.02;100807.23;4110606;84;21029;-86
2022/01/24 11:47:40;;;;;;;61.53;27.98;;;;;;;0.63;66.18;100812.02;4112752;84;64704;-85
2022/01/24 11:53:48;;;;;;;58.25;29.35;;;;;;;0.59;69.10;100809.59;4116726;84;21085;-85
2022/01/24 11:59:55;;;;;;;69.45;33.35;;;;;;;0.84;68.96;100812.87;4048385;86;21086;-84
2022/01/24 12:06:09;;;;;;;66.42;33.18;;;;;;;0.92;69.21;100800.22;4067341;84;21138;-85
2022/01/24 12:12:38;;;;;;;64.65;32.23;;;;;;;1.00;68.89;100802.38;4067221;85;21115;-85
2022/01/24 12:18:47;;;;;;;68.07;32.00;;;;;;;0.74;68.30;100796.14;4055222;85;21202;-85
2022/01/24 12:24:50;;;;;;;67.20;30.65;;;;;;;0.50;68.44;100801.73;4119126;84;21218;-85
2022/01/24 12:31:13;;;;;;;57.65;30.45;;;;;;;0.40;68.05;100800.90;4119847;84;21083;-84
2022/01/24 12:37:29;;;;;;;63.87;29.40;;;;;;;0.18;68.22;100797.58;4123966;84;21039;-86
2022/01/24 12:43:51;;;;;;;63.17;30.32;;;;;;;0.06;68.38;100794.31;4077347;84;21110;-86
2022/01/24 12:49:37;;;;;;;74.37;34.75;;;;;;;0.20;68.46;100800.83;4060270;85;21141;-86
2022/01/24 12:55:43;;;;;;;70.75;30.97;;;;;;;0.18;68.02;100802.97;4050206;85;21084;-86
2022/01/24 13:01:45;;;;;;;58.25;27.80;;;;;;;0.19;67.97;100811.34;4203565;81;21084;-86
2022/01/24 13:07:57;;;;;;;57.33;27.82;;;;;;;0.21;66.67;100818.59;4232169;82;21550;-86
2022/01/24 13:14:10;;;;;;;73.20;32.80;;;;;;;0.12;67.57;100808.88;4215320;82;21055;-87
2022/01/24 13:26:35;;;;;;;60.90;28.83;;;;;;;-0.01;67.20;100802.09;4208901;82;21538;-85
2022/01/24 13:32:55;;;;;;;59.03;28.12;;;;;;;-0.15;67.02;100796.91;4205187;82;21081;-86
2022/01/24 13:38:57;;;;;;;58.68;27.73;;;;;;;-0.17;67.47;100790.14;4199320;82;21126;-86
2022/01/24 13:44:58;;;;;;;57.27;26.97;;;;;;;-0.22;67.22;100788.24;4207423;82;21190;-85
2022/01/24 13:50:59;;;;;;;60.43;28.30;;;;;;;-0.27;67.18;100777.44;4197783;82;21117;-85
2022/01/24 13:57:09;;;;;;;66.28;27.02;;;;;;;-0.35;64.43;100764.51;4206675;82;21142;-84
2022/01/24 14:03:13;;;;;;;60.73;27.52;;;;;;;-0.54;66.16;100753.90;4216662;82;21572;-85
2022/01/24 14:09:41;;;;;;;53.23;27.05;;;;;;;-0.53;66.38;100758.72;4213615;82;21069;-85
2022/01/24 14:15:55;;;;;;;55.88;26.35;;;;;;;-0.57;66.13;100756.29;4214839;82;21554;-85
2022/01/24 14:22:06;;;;;;;50.30;24.05;;;;;;;-0.65;66.24;100765.66;4213029;82;21071;-84
2022/01/24 14:28:10;;;;;;;56.80;24.00;;;;;;;-0.70;66.27;100756.73;4191681;83;21031;-85
2022/01/24 14:34:17;;;;;;;50.25;21.70;;;;;;;-0.77;66.21;100756.16;4209240;82;21188;-85
2022/01/24 14:40:56;;;;;;;50.08;23.18;;;;;;;-0.85;65.99;100753.94;4208748;82;21053;-85
2022/01/24 14:46:59;;;;;;;44.80;20.40;;;;;;;-0.96;65.98;100742.84;4205675;82;21093;-85
2022/01/24 14:53:07;;;;;;;44.10;20.20;;;;;;;-1.07;65.95;100739.27;4214665;82;21431;-85
2022/01/24 14:59:08;;;;;;;42.03;18.20;;;;;;;-1.23;65.99;100747.44;4212229;82;21128;-86
2022/01/24 15:05:09;;;;;;;41.60;19.25;;;;;;;-1.41;65.81;100718.27;4205123;82;21072;-85
2022/01/24 15:11:16;;;;;;;46.13;19.57;;;;;;;-1.45;65.90;100739.45;4217397;82;33509;-86
2022/01/24 15:30:17;;;;;;;37.83;18.57;;;;;;;-1.82;66.18;100750.62;4151067;84;21539;-85
2022/01/24 15:36:20;;;;;;;64.53;27.82;;;;;;;-2.11;66.56;100749.19;4215530;83;21069;-86
2022/01/24 15:42:41;;;;;;;73.37;31.65;;;;;;;-2.34;66.99;100751.59;4206637;83;21054;-86
2022/01/24 15:48:54;;;;;;;68.87;29.95;;;;;;;-2.45;66.75;100732.41;4208553;83;21108;-85
2022/01/24 15:54:56;;;;;;;77.72;32.93;;;;;;;-2.46;67.10;100736.68;4211328;83;21035;-85
2022/01/24 16:00:57;;;;;;;93.25;42.20;;;;;;;-2.50;67.62;100740.89;4207681;83;22492;-85
2022/01/24 16:07:13;;;;;;;90.47;39.08;;;;;;;-2.51;68.00;100736.60;4214079;83;21500;-84
2022/01/24 16:20:33;;;;;;;84.35;35.98;;;;;;;-2.49;68.22;100737.97;4211341;82;21094;-85
2022/01/24 16:26:35;;;;;;;83.40;37.77;;;;;;;-2.49;68.40;100734.49;4196431;83;21086;-85
2022/01/24 16:32:39;;;;;;;80.90;35.75;;;;;;;-2.52;68.99;100729.63;4213723;83;21554;-85
2022/01/24 16:38:44;;;;;;;64.90;31.25;;;;;;;-2.45;69.64;100732.92;4220028;83;21142;-86
2022/01/24 16:45:14;;;;;;;92.30;40.33;;;;;;;-2.46;69.54;100738.02;4202903;83;21063;-85
2022/01/24 16:51:21;;;;;;;81.05;35.95;;;;;;;-2.46;69.96;100736.68;4211497;83;21517;-86
2022/01/24 16:57:23;;;;;;;109.10;43.73;;;;;;;-2.48;70.37;100729.41;4205606;83;21066;-85
2022/01/24 17:03:29;;;;;;;113.50;48.65;;;;;;;-2.42;70.63;100735.11;4206449;83;21583;-85
2022/01/24 17:10:06;;;;;;;98.90;43.73;;;;;;;-2.40;70.49;100732.48;4197145;83;21092;-85
2022/01/24 17:16:08;;;;;;;109.93;46.03;;;;;;;-2.35;70.62;100733.86;4201218;83;21595;-85
2022/01/24 17:22:17;;;;;;;120.50;52.33;;;;;;;-2.43;70.63;100749.07;4209378;83;21019;-86
2022/01/24 17:28:33;;;;;;;113.60;49.95;;;;;;;-2.51;70.94;100758.87;4200467;83;21018;-86
2022/01/24 17:34:34;;;;;;;112.20;48.67;;;;;;;-2.50;71.27;100751.10;4222311;83;21027;-86
2022/01/24 17:40:36;;;;;;;201.00;84.07;;;;;;;-2.52;71.00;100749.74;4212240;83;21531;-86
2022/01/24 17:46:43;;;;;;;211.97;85.73;;;;;;;-2.55;71.15;100740.30;4226432;83;21086;-86
2022/01/24 17:52:48;;;;;;;198.47;78.30;;;;;;;-2.55;70.98;100725.55;4229981;83;21017;-86
2022/01/24 17:58:49;;;;;;;172.83;70.67;;;;;;;-2.50;71.11;100724.80;4207441;83;21065;-86
2022/01/24 18:04:58;;;;;;;171.10;73.07;;;;;;;-2.52;71.94;100737.12;4217365;83;21071;-87
2022/01/24 18:18:10;;;;;;;150.07;59.03;;;;;;;-2.37;71.91;100731.98;4185838;83;21576;-87
2022/01/24 18:24:12;;;;;;;151.43;62.13;;;;;;;-2.43;71.93;100718.75;4203493;83;21043;-86
2022/01/24 18:30:13;;;;;;;153.90;62.97;;;;;;;-2.31;73.01;100725.62;4206873;82;21015;-86
2022/01/24 18:36:21;;;;;;;147.00;59.27;;;;;;;-2.18;73.29;100726.59;4197513;83;21466;-86
2022/01/24 18:42:27;;;;;;;152.90;63.55;;;;;;;-2.17;72.40;100729.55;4206868;83;21445;-87
2022/01/24 18:48:26;;;;;;;132.73;57.07;;;;;;;-2.09;72.70;100725.61;4198795;83;21161;-86
2022/01/24 18:54:27;;;;;;;176.68;71.17;;;;;;;-2.08;72.62;100707.91;4203705;83;21061;-86
2022/01/24 19:00:31;;;;;;;184.07;77.20;;;;;;;-2.24;73.14;100717.39;4207430;83;21051;-86
2022/01/24 19:07:05;;;;;;;206.03;83.17;;;;;;;-2.26;73.26;100717.64;4206084;82;21574;-86
2022/01/24 19:13:18;;;;;;;205.40;84.80;;;;;;;-2.27;73.44;100715.20;4212689;83;21069;-86
2022/01/24 19:26:10;;;;;;;205.73;81.63;;;;;;;-2.25;73.85;100709.04;4208647;83;21102;-86
2022/01/24 19:32:13;;;;;;;201.47;81.77;;;;;;;-2.26;73.92;100711.45;4206133;83;21044;-86
2022/01/24 19:45:09;;;;;;;195.50;82.10;;;;;;;-2.33;74.00;100715.66;4192478;83;21585;-86
2022/01/24 19:51:13;;;;;;;198.25;79.47;;;;;;;-2.31;74.48;100704.67;4212810;83;21110;-86
2022/01/24 19:58:36;;;;;;;;;;;;;;;;;;;;;
2022/01/24 20:04:15;;;;;;;214.83;86.40;;;;;;;-2.20;74.59;100697.03;4088647;86;21044;-87
2022/01/24 20:10:27;;;;;;;169.90;70.55;;;;;;;-2.17;74.64;100698.70;4137984;84;21051;-86
2022/01/24 20:16:44;;;;;;;212.57;90.43;;;;;;;-2.17;74.58;100701.90;4122560;85;21116;-87
2022/01/24 20:22:45;;;;;;;235.77;92.00;;;;;;;-2.15;75.08;100697.10;4198264;83;21522;-86
2022/01/24 20:29:04;;;;;;;218.33;96.63;;;;;;;-2.15;75.06;100697.10;4220447;83;21513;-87
2022/01/24 20:35:21;;;;;;;230.30;96.97;;;;;;;-2.19;75.04;100704.02;4193427;83;21044;-86
2022/01/24 20:41:26;;;;;;;236.57;98.15;;;;;;;-2.21;75.49;100698.89;4221137;83;20987;-85
2022/01/24 20:47:27;;;;;;;225.83;96.17;;;;;;;-2.21;75.32;100697.55;4216882;82;21504;-86
2022/01/24 20:53:28;;;;;;;239.17;99.37;;;;;;;-2.24;75.55;100691.35;4217526;83;21058;-86
2022/01/24 20:59:31;;;;;;;253.87;106.00;;;;;;;-2.24;75.73;100692.69;4205784;83;21086;-86
2022/01/24 21:05:37;;;;;;;254.93;107.10;;;;;;;-2.15;76.24;100685.84;4210353;83;21078;-86
2022/01/24 21:18:10;;;;;;;237.47;98.50;;;;;;;-2.07;76.49;100675.98;4207909;83;21095;-86
2022/01/24 21:24:11;;;;;;;249.77;100.10;;;;;;;-2.10;76.38;100675.14;4195140;83;21575;-86
2022/01/24 21:30:14;;;;;;;239.93;101.40;;;;;;;-2.10;76.49;100679.17;4194156;83;21059;-87
2022/01/24 21:36:18;;;;;;;243.50;103.00;;;;;;;-2.12;76.48;100675.95;4209132;83;21046;-86
2022/01/24 21:42:27;;;;;;;232.53;94.77;;;;;;;-2.20;76.49;100671.55;4184171;83;21420;-86
2022/01/24 21:48:42;;;;;;;230.03;94.90;;;;;;;-2.11;76.90;100667.34;4222742;83;21039;-86
2022/01/24 21:55:04;;;;;;;229.13;95.63;;;;;;;-1.99;77.03;100666.70;4221410;83;21054;-85
2022/01/24 22:01:05;;;;;;;218.20;88.87;;;;;;;-1.96;76.96;100653.56;4217164;83;21663;-86
2022/01/24 22:20:50;;;;;;;233.03;94.53;;;;;;;-2.01;77.22;100646.83;4216942;83;21116;-87
2022/01/24 22:26:53;;;;;;;240.40;97.33;;;;;;;-2.04;77.27;100635.78;4204690;83;21055;-86
2022/01/24 22:32:57;;;;;;;;;;;;;;;-2.01;77.39;100627.22;4191994;83;21484;-86
2022/01/24 22:39:00;;;;;;;226.23;93.50;;;;;;;-2.00;77.67;100633.67;4199125;83;20117;-87
2022/01/24 22:45:03;;;;;;;229.07;89.83;;;;;;;-1.99;77.39;100618.39;4206622;83;21059;-86
2022/01/24 22:51:25;;;;;;;228.13;92.43;;;;;;;-2.01;77.50;100624.02;4192004;83;21101;-86
2022/01/24 22:57:35;;;;;;;219.33;86.50;;;;;;;-1.97;77.66;100612.22;4195848;83;21548;-86
2022/01/24 23:04:01;;;;;;;222.93;88.85;;;;;;;-1.91;77.59;100601.83;4206232;83;21076;-86
2022/01/24 23:10:03;;;;;;;192.60;74.10;;;;;;;-1.90;77.80;100594.05;4208948;83;21091;-86
2022/01/24 23:23:25;;;;;;;143.57;55.10;;;;;;;-1.87;77.87;100579.59;4194092;83;21050;-86
2022/01/24 23:29:26;;;;;;;133.35;55.08;;;;;;;-1.88;77.97;100571.80;4127791;85;21591;-87
2022/01/24 23:42:23;;;;;;;151.33;58.50;;;;;;;-1.70;78.60;100556.63;4089213;86;21077;-86
2022/01/24 23:48:30;;;;;;;161.10;61.40;;;;;;;-1.59;78.50;100551.61;4107907;85;21054;-86
2022/01/24 23:54:33;;;;;;;146.70;56.83;;;;;;;-1.53;78.44;100541.17;4090078;85;21056;-87
